sensor_id;sensor_type;location;lat;lon;timestamp;P1;durP1;ratioP1;P2;durP2;ratioP2
40541;SDS011;49288;52.194;5.676;2023-02-22T00:03:01;54.35;;;17.98;;
40541;SDS011;49288;52.194;5.676;2023-02-22T00:08:06;50.90;;;17.57;;
40541;SDS011;49288;52.194;5.676;2023-02-22T00:13:11;47.50;;;16.67;;
40541;SDS011;49288;52.194;5.676;2023-02-22T00:18:16;49.65;;;16.10;;
40541;SDS011;49288;52.194;5.676;2023-02-22T00:23:21;36.65;;;13.68;;
40541;SDS011;49288;52.194;5.676;2023-02-22T00:28:24;53.45;;;16.52;;
40541;SDS011;49288;52.194;5.676;2023-02-22T00:33:26;43.97;;;15.50;;
40541;SDS011;49288;52.194;5.676;2023-02-22T00:38:29;47.97;;;15.65;;
40541;SDS011;49288;52.194;5.676;2023-02-22T00:43:32;54.05;;;17.50;;
40541;SDS011;49288;52.194;5.676;2023-02-22T00:48:36;50.50;;;16.25;;
40541;SDS011;49288;52.194;5.676;2023-02-22T00:53:39;50.47;;;16.92;;
40541;SDS011;49288;52.194;5.676;2023-02-22T00:58:44;49.65;;;16.50;;
40541;SDS011;49288;52.194;5.676;2023-02-22T01:03:47;48.13;;;16.52;;
40541;SDS011;49288;52.194;5.676;2023-02-22T01:08:50;53.22;;;17.25;;
40541;SDS011;49288;52.194;5.676;2023-02-22T01:13:53;55.17;;;16.75;;
40541;SDS011;49288;52.194;5.676;2023-02-22T01:18:58;57.17;;;17.60;;
40541;SDS011;49288;52.194;5.676;2023-02-22T01:24:03;55.15;;;18.40;;
40541;SDS011;49288;52.194;5.676;2023-02-22T01:29:06;67.03;;;21.27;;
40541;SDS011;49288;52.194;5.676;2023-02-22T01:34:09;63.90;;;20.85;;
40541;SDS011;49288;52.194;5.676;2023-02-22T01:39:14;60.67;;;20.40;;
40541;SDS011;49288;52.194;5.676;2023-02-22T01:45:19;59.05;;;18.80;;
40541;SDS011;49288;52.194;5.676;2023-02-22T01:50:10;46.30;;;16.17;;
40541;SDS011;49288;52.194;5.676;2023-02-22T01:55:13;59.60;;;19.83;;
40541;SDS011;49288;52.194;5.676;2023-02-22T02:00:17;59.58;;;20.05;;
40541;SDS011;49288;52.194;5.676;2023-02-22T02:05:22;59.00;;;18.98;;
40541;SDS011;49288;52.194;5.676;2023-02-22T02:10:27;59.38;;;19.73;;
40541;SDS011;49288;52.194;5.676;2023-02-22T02:15:31;67.70;;;22.10;;
40541;SDS011;49288;52.194;5.676;2023-02-22T02:41:57;60.15;;;19.67;;
40541;SDS011;49288;52.194;5.676;2023-02-22T02:52:43;57.45;;;19.05;;
40541;SDS011;49288;52.194;5.676;2023-02-22T02:57:46;66.72;;;21.45;;
40541;SDS011;49288;52.194;5.676;2023-02-22T03:08:28;75.97;;;23.63;;
40541;SDS011;49288;52.194;5.676;2023-02-22T03:14:01;59.90;;;18.33;;
40541;SDS011;49288;52.194;5.676;2023-02-22T03:24:24;74.85;;;23.98;;
40541;SDS011;49288;52.194;5.676;2023-02-22T03:29:32;74.30;;;21.63;;
40541;SDS011;49288;52.194;5.676;2023-02-22T03:34:42;67.65;;;21.75;;
40541;SDS011;49288;52.194;5.676;2023-02-22T03:39:48;82.00;;;24.77;;
40541;SDS011;49288;52.194;5.676;2023-02-22T03:44:54;78.78;;;24.85;;
40541;SDS011;49288;52.194;5.676;2023-02-22T03:50:00;69.13;;;21.08;;
40541;SDS011;49288;52.194;5.676;2023-02-22T03:55:09;81.82;;;24.65;;
40541;SDS011;49288;52.194;5.676;2023-02-22T04:00:14;91.93;;;26.50;;
40541;SDS011;49288;52.194;5.676;2023-02-22T04:05:19;77.05;;;23.95;;
40541;SDS011;49288;52.194;5.676;2023-02-22T04:10:23;68.65;;;21.73;;
40541;SDS011;49288;52.194;5.676;2023-02-22T04:15:26;80.28;;;23.17;;
40541;SDS011;49288;52.194;5.676;2023-02-22T04:20:37;84.32;;;24.70;;
40541;SDS011;49288;52.194;5.676;2023-02-22T04:25:45;81.18;;;22.92;;
40541;SDS011;49288;52.194;5.676;2023-02-22T04:30:51;78.45;;;24.45;;
40541;SDS011;49288;52.194;5.676;2023-02-22T04:35:54;86.47;;;25.48;;
40541;SDS011;49288;52.194;5.676;2023-02-22T04:40:58;75.03;;;21.90;;
40541;SDS011;49288;52.194;5.676;2023-02-22T04:46:02;87.30;;;24.55;;
40541;SDS011;49288;52.194;5.676;2023-02-22T04:51:05;86.07;;;24.88;;
40541;SDS011;49288;52.194;5.676;2023-02-22T04:56:11;82.90;;;24.38;;
40541;SDS011;49288;52.194;5.676;2023-02-22T05:01:14;93.03;;;24.52;;
40541;SDS011;49288;52.194;5.676;2023-02-22T05:06:20;73.88;;;22.13;;
40541;SDS011;49288;52.194;5.676;2023-02-22T05:11:24;85.40;;;26.13;;
40541;SDS011;49288;52.194;5.676;2023-02-22T05:16:27;89.95;;;25.42;;
40541;SDS011;49288;52.194;5.676;2023-02-22T05:21:30;84.78;;;22.17;;
40541;SDS011;49288;52.194;5.676;2023-02-22T05:26:35;71.43;;;20.42;;
40541;SDS011;49288;52.194;5.676;2023-02-22T05:31:37;85.85;;;24.90;;
40541;SDS011;49288;52.194;5.676;2023-02-22T05:36:43;93.90;;;25.27;;
40541;SDS011;49288;52.194;5.676;2023-02-22T05:41:46;87.60;;;24.40;;
40541;SDS011;49288;52.194;5.676;2023-02-22T05:46:50;100.25;;;25.55;;
40541;SDS011;49288;52.194;5.676;2023-02-22T05:51:52;93.15;;;25.33;;
40541;SDS011;49288;52.194;5.676;2023-02-22T05:57:00;93.68;;;25.20;;
40541;SDS011;49288;52.194;5.676;2023-02-22T06:02:03;76.43;;;23.33;;
40541;SDS011;49288;52.194;5.676;2023-02-22T06:07:06;97.75;;;25.45;;
40541;SDS011;49288;52.194;5.676;2023-02-22T06:12:08;110.65;;;28.42;;
40541;SDS011;49288;52.194;5.676;2023-02-22T06:17:12;108.78;;;27.90;;
40541;SDS011;49288;52.194;5.676;2023-02-22T06:27:19;93.07;;;25.48;;
40541;SDS011;49288;52.194;5.676;2023-02-22T06:32:22;96.88;;;26.80;;
40541;SDS011;49288;52.194;5.676;2023-02-22T06:37:25;117.97;;;29.45;;
40541;SDS011;49288;52.194;5.676;2023-02-22T06:42:27;122.65;;;29.67;;
40541;SDS011;49288;52.194;5.676;2023-02-22T06:47:30;125.38;;;31.58;;
40541;SDS011;49288;52.194;5.676;2023-02-22T06:52:33;105.18;;;28.05;;
40541;SDS011;49288;52.194;5.676;2023-02-22T06:57:35;108.25;;;28.58;;
40541;SDS011;49288;52.194;5.676;2023-02-22T07:02:38;124.22;;;32.70;;
40541;SDS011;49288;52.194;5.676;2023-02-22T07:07:41;112.25;;;30.50;;
40541;SDS011;49288;52.194;5.676;2023-02-22T07:12:43;130.10;;;32.47;;
40541;SDS011;49288;52.194;5.676;2023-02-22T07:17:46;92.03;;;26.25;;
40541;SDS011;49288;52.194;5.676;2023-02-22T07:22:49;140.02;;;37.38;;
40541;SDS011;49288;52.194;5.676;2023-02-22T07:27:52;140.20;;;34.67;;
40541;SDS011;49288;52.194;5.676;2023-02-22T07:32:54;156.88;;;38.17;;
40541;SDS011;49288;52.194;5.676;2023-02-22T07:38:17;137.23;;;33.00;;
40541;SDS011;49288;52.194;5.676;2023-02-22T07:43:21;142.17;;;36.13;;
40541;SDS011;49288;52.194;5.676;2023-02-22T07:48:29;163.10;;;38.42;;
40541;SDS011;49288;52.194;5.676;2023-02-22T07:53:32;154.20;;;39.55;;
40541;SDS011;49288;52.194;5.676;2023-02-22T07:58:35;157.43;;;37.80;;
40541;SDS011;49288;52.194;5.676;2023-02-22T08:03:37;138.63;;;34.13;;
40541;SDS011;49288;52.194;5.676;2023-02-22T08:08:40;150.18;;;35.20;;
40541;SDS011;49288;52.194;5.676;2023-02-22T08:13:43;143.52;;;35.67;;
40541;SDS011;49288;52.194;5.676;2023-02-22T08:18:46;108.55;;;27.75;;
40541;SDS011;49288;52.194;5.676;2023-02-22T08:23:51;119.45;;;32.10;;
40541;SDS011;49288;52.194;5.676;2023-02-22T08:28:55;89.25;;;25.90;;
40541;SDS011;49288;52.194;5.676;2023-02-22T08:33:58;106.35;;;26.88;;
40541;SDS011;49288;52.194;5.676;2023-02-22T08:39:02;107.00;;;30.80;;
40541;SDS011;49288;52.194;5.676;2023-02-22T08:44:04;131.25;;;35.25;;
40541;SDS011;49288;52.194;5.676;2023-02-22T08:49:07;123.32;;;31.40;;
40541;SDS011;49288;52.194;5.676;2023-02-22T08:54:11;99.00;;;29.33;;
40541;SDS011;49288;52.194;5.676;2023-02-22T08:59:15;106.55;;;30.52;;
40541;SDS011;49288;52.194;5.676;2023-02-22T09:04:18;120.43;;;31.42;;
40541;SDS011;49288;52.194;5.676;2023-02-22T09:09:21;88.38;;;26.20;;
40541;SDS011;49288;52.194;5.676;2023-02-22T09:14:23;106.10;;;29.65;;
40541;SDS011;49288;52.194;5.676;2023-02-22T09:19:26;119.35;;;30.75;;
40541;SDS011;49288;52.194;5.676;2023-02-22T09:24:29;123.70;;;32.35;;
40541;SDS011;49288;52.194;5.676;2023-02-22T09:29:31;123.45;;;32.80;;
40541;SDS011;49288;52.194;5.676;2023-02-22T09:34:34;118.65;;;31.45;;
40541;SDS011;49288;52.194;5.676;2023-02-22T09:39:37;109.70;;;28.95;;
40541;SDS011;49288;52.194;5.676;2023-02-22T09:50:15;123.80;;;32.40;;
40541;SDS011;49288;52.194;5.676;2023-02-22T09:55:39;106.53;;;29.67;;
40541;SDS011;49288;52.194;5.676;2023-02-22T10:00:44;111.18;;;31.48;;
40541;SDS011;49288;52.194;5.676;2023-02-22T10:05:53;109.07;;;31.80;;
40541;SDS011;49288;52.194;5.676;2023-02-22T10:11:15;120.28;;;31.83;;
40541;SDS011;49288;52.194;5.676;2023-02-22T10:21:48;122.72;;;32.83;;
40541;SDS011;49288;52.194;5.676;2023-02-22T10:26:59;129.18;;;34.90;;
40541;SDS011;49288;52.194;5.676;2023-02-22T10:32:05;108.80;;;28.70;;
40541;SDS011;49288;52.194;5.676;2023-02-22T10:42:33;105.00;;;29.77;;
40541;SDS011;49288;52.194;5.676;2023-02-22T10:47:36;96.88;;;28.52;;
40541;SDS011;49288;52.194;5.676;2023-02-22T10:52:39;96.25;;;29.05;;
40541;SDS011;49288;52.194;5.676;2023-02-22T10:57:43;90.95;;;27.33;;
40541;SDS011;49288;52.194;5.676;2023-02-22T11:02:52;93.43;;;27.73;;
40541;SDS011;49288;52.194;5.676;2023-02-22T11:08:23;82.72;;;27.10;;
40541;SDS011;49288;52.194;5.676;2023-02-22T11:13:37;79.05;;;25.85;;
40541;SDS011;49288;52.194;5.676;2023-02-22T11:18:40;85.55;;;27.13;;
40541;SDS011;49288;52.194;5.676;2023-02-22T11:23:43;86.57;;;27.00;;
40541;SDS011;49288;52.194;5.676;2023-02-22T11:28:47;85.95;;;27.23;;
40541;SDS011;49288;52.194;5.676;2023-02-22T11:33:52;69.20;;;22.60;;
40541;SDS011;49288;52.194;5.676;2023-02-22T11:39:02;78.60;;;26.65;;
40541;SDS011;49288;52.194;5.676;2023-02-22T11:44:19;86.65;;;26.27;;
40541;SDS011;49288;52.194;5.676;2023-02-22T11:49:31;80.53;;;26.30;;
40541;SDS011;49288;52.194;5.676;2023-02-22T12:00:01;62.30;;;22.00;;
40541;SDS011;49288;52.194;5.676;2023-02-22T12:10:59;64.00;;;21.60;;
40541;SDS011;49288;52.194;5.676;2023-02-22T12:22:06;56.72;;;21.48;;
40541;SDS011;49288;52.194;5.676;2023-02-22T12:27:24;60.30;;;23.20;;
40541;SDS011;49288;52.194;5.676;2023-02-22T12:33:22;54.92;;;20.00;;
40541;SDS011;49288;52.194;5.676;2023-02-22T12:38:23;58.67;;;22.80;;
40541;SDS011;49288;52.194;5.676;2023-02-22T12:43:33;58.83;;;22.60;;
40541;SDS011;49288;52.194;5.676;2023-02-22T12:48:43;65.85;;;23.02;;
40541;SDS011;49288;52.194;5.676;2023-02-22T12:54:01;57.38;;;19.80;;
40541;SDS011;49288;52.194;5.676;2023-02-22T12:59:28;58.45;;;21.77;;
40541;SDS011;49288;52.194;5.676;2023-02-22T13:04:34;53.40;;;19.95;;
40541;SDS011;49288;52.194;5.676;2023-02-22T13:20:52;63.55;;;23.65;;
40541;SDS011;49288;52.194;5.676;2023-02-22T13:52:02;75.32;;;26.95;;
40541;SDS011;49288;52.194;5.676;2023-02-22T13:57:17;68.53;;;26.42;;
40541;SDS011;49288;52.194;5.676;2023-02-22T14:13:19;71.78;;;25.13;;
40541;SDS011;49288;52.194;5.676;2023-02-22T14:18:39;72.25;;;25.80;;
40541;SDS011;49288;52.194;5.676;2023-02-22T14:23:47;61.47;;;23.13;;
40541;SDS011;49288;52.194;5.676;2023-02-22T14:39:47;62.45;;;24.20;;
40541;SDS011;49288;52.194;5.676;2023-02-22T14:45:00;65.20;;;24.27;;
40541;SDS011;49288;52.194;5.676;2023-02-22T14:50:25;59.35;;;22.52;;
40541;SDS011;49288;52.194;5.676;2023-02-22T14:55:45;65.15;;;23.75;;
40541;SDS011;49288;52.194;5.676;2023-02-22T15:06:37;59.90;;;22.67;;
40541;SDS011;49288;52.194;5.676;2023-02-22T15:11:40;61.85;;;23.55;;
40541;SDS011;49288;52.194;5.676;2023-02-22T15:16:51;77.47;;;27.17;;
40541;SDS011;49288;52.194;5.676;2023-02-22T15:21:56;78.00;;;30.08;;
40541;SDS011;49288;52.194;5.676;2023-02-22T15:27:02;84.97;;;29.70;;
40541;SDS011;49288;52.194;5.676;2023-02-22T15:32:28;68.53;;;26.70;;
40541;SDS011;49288;52.194;5.676;2023-02-22T15:37:39;57.00;;;24.33;;
40541;SDS011;49288;52.194;5.676;2023-02-22T15:42:42;64.35;;;26.75;;
40541;SDS011;49288;52.194;5.676;2023-02-22T15:47:50;51.75;;;22.48;;
40541;SDS011;49288;52.194;5.676;2023-02-22T15:53:05;51.60;;;21.10;;
40541;SDS011;49288;52.194;5.676;2023-02-22T15:58:40;63.08;;;27.52;;
40541;SDS011;49288;52.194;5.676;2023-02-22T16:03:54;60.23;;;26.03;;
40541;SDS011;49288;52.194;5.676;2023-02-22T16:08:58;64.32;;;26.95;;
40541;SDS011;49288;52.194;5.676;2023-02-22T16:14:04;54.45;;;24.17;;
40541;SDS011;49288;52.194;5.676;2023-02-22T16:24:37;54.50;;;23.55;;
40541;SDS011;49288;52.194;5.676;2023-02-22T16:29:42;59.53;;;24.03;;
40541;SDS011;49288;52.194;5.676;2023-02-22T16:34:46;59.22;;;26.13;;
40541;SDS011;49288;52.194;5.676;2023-02-22T16:39:51;56.53;;;25.25;;
40541;SDS011;49288;52.194;5.676;2023-02-22T16:44:54;55.75;;;25.48;;
40541;SDS011;49288;52.194;5.676;2023-02-22T16:49:58;55.10;;;27.15;;
40541;SDS011;49288;52.194;5.676;2023-02-22T16:55:00;56.50;;;24.88;;
40541;SDS011;49288;52.194;5.676;2023-02-22T17:00:04;60.53;;;28.05;;
40541;SDS011;49288;52.194;5.676;2023-02-22T17:05:14;53.92;;;25.55;;
40541;SDS011;49288;52.194;5.676;2023-02-22T17:10:17;50.10;;;23.27;;
40541;SDS011;49288;52.194;5.676;2023-02-22T17:15:27;52.40;;;24.17;;
40541;SDS011;49288;52.194;5.676;2023-02-22T17:20:32;54.88;;;24.98;;
40541;SDS011;49288;52.194;5.676;2023-02-22T17:30:41;58.95;;;25.05;;
40541;SDS011;49288;52.194;5.676;2023-02-22T17:35:47;58.53;;;25.77;;
40541;SDS011;49288;52.194;5.676;2023-02-22T17:40:50;64.25;;;31.70;;
40541;SDS011;49288;52.194;5.676;2023-02-22T17:45:53;90.88;;;42.05;;
40541;SDS011;49288;52.194;5.676;2023-02-22T17:50:57;77.63;;;35.13;;
40541;SDS011;49288;52.194;5.676;2023-02-22T17:56:04;78.50;;;36.38;;
40541;SDS011;49288;52.194;5.676;2023-02-22T18:01:17;67.40;;;30.27;;
40541;SDS011;49288;52.194;5.676;2023-02-22T18:11:28;79.45;;;34.40;;
40541;SDS011;49288;52.194;5.676;2023-02-22T18:16:33;75.13;;;32.40;;
40541;SDS011;49288;52.194;5.676;2023-02-22T18:21:37;83.82;;;37.95;;
40541;SDS011;49288;52.194;5.676;2023-02-22T18:26:40;88.88;;;40.58;;
40541;SDS011;49288;52.194;5.676;2023-02-22T18:31:43;101.63;;;44.08;;
40541;SDS011;49288;52.194;5.676;2023-02-22T18:36:46;70.18;;;33.88;;
40541;SDS011;49288;52.194;5.676;2023-02-22T18:41:49;96.13;;;40.83;;
40541;SDS011;49288;52.194;5.676;2023-02-22T18:46:52;102.85;;;41.13;;
40541;SDS011;49288;52.194;5.676;2023-02-22T18:51:55;114.30;;;46.70;;
40541;SDS011;49288;52.194;5.676;2023-02-22T18:56:58;122.43;;;49.17;;
40541;SDS011;49288;52.194;5.676;2023-02-22T19:02:02;120.50;;;49.95;;
40541;SDS011;49288;52.194;5.676;2023-02-22T19:07:05;113.70;;;47.63;;
40541;SDS011;49288;52.194;5.676;2023-02-22T19:12:08;127.10;;;50.78;;
40541;SDS011;49288;52.194;5.676;2023-02-22T19:17:12;113.63;;;49.30;;
40541;SDS011;49288;52.194;5.676;2023-02-22T19:22:18;130.32;;;52.80;;
40541;SDS011;49288;52.194;5.676;2023-02-22T19:27:22;113.50;;;46.00;;
40541;SDS011;49288;52.194;5.676;2023-02-22T19:32:25;134.82;;;54.22;;
40541;SDS011;49288;52.194;5.676;2023-02-22T19:37:28;143.73;;;55.28;;
40541;SDS011;49288;52.194;5.676;2023-02-22T19:42:35;139.07;;;54.40;;
40541;SDS011;49288;52.194;5.676;2023-02-22T19:47:37;131.45;;;51.70;;
40541;SDS011;49288;52.194;5.676;2023-02-22T19:52:40;154.57;;;59.22;;
40541;SDS011;49288;52.194;5.676;2023-02-22T19:57:43;161.30;;;60.30;;
40541;SDS011;49288;52.194;5.676;2023-02-22T20:02:57;149.07;;;55.35;;
40541;SDS011;49288;52.194;5.676;2023-02-22T20:08:07;156.95;;;60.05;;
40541;SDS011;49288;52.194;5.676;2023-02-22T20:13:12;174.52;;;64.75;;
40541;SDS011;49288;52.194;5.676;2023-02-22T20:18:15;178.18;;;66.28;;
40541;SDS011;49288;52.194;5.676;2023-02-22T20:23:18;145.68;;;55.92;;
40541;SDS011;49288;52.194;5.676;2023-02-22T20:28:21;144.13;;;55.80;;
40541;SDS011;49288;52.194;5.676;2023-02-22T20:33:24;115.67;;;46.20;;
40541;SDS011;49288;52.194;5.676;2023-02-22T20:38:27;169.57;;;61.50;;
40541;SDS011;49288;52.194;5.676;2023-02-22T20:43:29;166.32;;;57.58;;
40541;SDS011;49288;52.194;5.676;2023-02-22T20:48:33;187.73;;;67.18;;
40541;SDS011;49288;52.194;5.676;2023-02-22T20:53:37;200.95;;;72.28;;
40541;SDS011;49288;52.194;5.676;2023-02-22T20:58:44;186.65;;;64.10;;
40541;SDS011;49288;52.194;5.676;2023-02-22T21:03:47;196.27;;;63.30;;
40541;SDS011;49288;52.194;5.676;2023-02-22T21:08:52;155.68;;;59.08;;
40541;SDS011;49288;52.194;5.676;2023-02-22T21:13:55;176.23;;;63.38;;
40541;SDS011;49288;52.194;5.676;2023-02-22T21:19:00;171.82;;;58.35;;
40541;SDS011;49288;52.194;5.676;2023-02-22T21:24:04;188.25;;;63.80;;
40541;SDS011;49288;52.194;5.676;2023-02-22T21:29:08;153.88;;;56.25;;
40541;SDS011;49288;52.194;5.676;2023-02-22T21:34:11;144.85;;;52.00;;
40541;SDS011;49288;52.194;5.676;2023-02-22T21:39:17;133.07;;;49.65;;
40541;SDS011;49288;52.194;5.676;2023-02-22T21:44:20;165.60;;;58.55;;
40541;SDS011;49288;52.194;5.676;2023-02-22T21:49:22;166.90;;;56.95;;
40541;SDS011;49288;52.194;5.676;2023-02-22T21:54:26;177.43;;;59.38;;
40541;SDS011;49288;52.194;5.676;2023-02-22T21:59:28;156.00;;;53.90;;
40541;SDS011;49288;52.194;5.676;2023-02-22T22:04:31;155.48;;;53.17;;
40541;SDS011;49288;52.194;5.676;2023-02-22T22:09:35;167.93;;;60.22;;
40541;SDS011;49288;52.194;5.676;2023-02-22T22:14:39;160.23;;;54.53;;
40541;SDS011;49288;52.194;5.676;2023-02-22T22:19:41;161.00;;;56.17;;
40541;SDS011;49288;52.194;5.676;2023-02-22T22:24:45;188.90;;;63.53;;
40541;SDS011;49288;52.194;5.676;2023-02-22T22:29:49;201.23;;;68.20;;
40541;SDS011;49288;52.194;5.676;2023-02-22T22:34:52;134.73;;;47.78;;
40541;SDS011;49288;52.194;5.676;2023-02-22T22:44:59;166.30;;;57.97;;
40541;SDS011;49288;52.194;5.676;2023-02-22T22:50:02;173.93;;;58.42;;
40541;SDS011;49288;52.194;5.676;2023-02-22T22:55:05;151.65;;;51.83;;
40541;SDS011;49288;52.194;5.676;2023-02-22T23:00:13;193.45;;;62.75;;
40541;SDS011;49288;52.194;5.676;2023-02-22T23:05:37;185.93;;;58.63;;
40541;SDS011;49288;52.194;5.676;2023-02-22T23:10:41;160.45;;;53.13;;
40541;SDS011;49288;52.194;5.676;2023-02-22T23:15:46;146.85;;;51.33;;
40541;SDS011;49288;52.194;5.676;2023-02-22T23:20:49;185.95;;;57.55;;
40541;SDS011;49288;52.194;5.676;2023-02-22T23:31:19;129.50;;;43.00;;
40541;SDS011;49288;52.194;5.676;2023-02-22T23:36:23;171.63;;;54.15;;
40541;SDS011;49288;52.194;5.676;2023-02-22T23:41:26;138.90;;;44.83;;
40541;SDS011;49288;52.194;5.676;2023-02-22T23:46:29;147.32;;;46.70;;
40541;SDS011;49288;52.194;5.676;2023-02-22T23:51:34;179.98;;;53.40;;
40541;SDS011;49288;52.194;5.676;2023-02-22T23:56:43;132.25;;;42.80;;
